< < Back
Terminal Aerodrome Forecast


Current Version              Previous Versions:   1  2  3  4  5  6  7  8  9  

Terminal Aerodrome Forecast

333
FTUS42 KTAE 281120
TAFABY
TAF
KABY 281120Z 2812/2912 11004KT P6SM SCT070
     FM281500 06005KT P6SM SCT060 BKN200
     FM290100 05003KT P6SM FEW060 SCT200=



Latest METAR

815
SAUS70 KWBC 291056
MTRABY
METAR KABY 291053Z AUTO 00000KT 10SM CLR 19/18 A3010 RMK AO2 SLP190
T01940178


USA.gov is the U.S. government's official web portal to all federal, state and local government web resources and services.